Flight Track Log - Related Links

Times and Time Zones

All times are in EDT time to prevent confusion due to time zone crossing. See the DAL101 flight status page for this flight to view local times or setup timezone preferences in your user account.

Time Position Orientation Groundspeed Altitude Reporting Facility
EDT Latitude Longitude Course Direction KTS MPH feet Rate Location/Type
Fri 09:40:31 PM 33.6333 -84.3667 164° South 191 220 2,900  Level Atlanta TRACON
Fri 09:41:31 PM 33.6000 -84.3000 121° Southeast 223 257 4,800 2,053 Climbing Atlanta TRACON
Fri 09:42:00 PM 33.2779 -84.2539 168° South  Level Estimated
Fri 09:42:25 PM 33.5500 -84.2667 151° Southeast 289 333 6,800  Level Atlanta TRACON
Fri 09:43:00 PM 33.1582 -84.1963 164° South  Level Estimated
Fri 09:43:31 PM 33.4667 -84.2833 189° South 287 330 9,500  Level Atlanta TRACON
Fri 09:44:00 PM 33.0385 -84.1388 160° South  Level Estimated
Fri 09:44:31 PM 33.3833 -84.2667 171° South 323 372 11,100  Level Atlanta TRACON
Fri 09:45:00 PM 32.9147 -84.0956 164° South  Level FlightAware Approximate
Fri 09:45:43 PM 33.2578 -84.2450 172° South 365 420 12,500  Level Atlanta Center
Fri 09:46:43 PM 33.1492 -84.2150 167° South 391 450 14,400 1,750 Climbing Atlanta Center
Fri 09:47:43 PM 33.0386 -84.1825 166° South 405 466 16,000 1,700 Climbing Atlanta Center
Fri 09:48:43 PM 32.9217 -84.1428 164° South 412 474 17,800 1,700 Climbing Atlanta Center
Fri 09:50:43 PM 32.6839 -84.0439 161° South 444 511 21,100 1,593 Climbing Atlanta Center
Fri 09:52:29 PM 32.4606 -83.9536 161° South 467 537 23,800 1,482 Climbing Jacksonville Center
Fri 09:53:29 PM 32.3317 -83.9006 161° South 478 550 25,200 1,450 Climbing Jacksonville Center
Fri 09:54:29 PM 32.2025 -83.8475 161° South 492 566 26,700 1,650 Climbing Jacksonville Center
Fri 09:55:29 PM 32.0714 -83.7922 160° South 499 574 28,500 1,400 Climbing Jacksonville Center
Fri 09:56:29 PM 31.9361 -83.7372 161° South 504 580 29,500 1,150 Climbing Jacksonville Center
Fri 09:57:29 PM 31.8175 -83.6847 159° South 504 580 30,800 700 Climbing Jacksonville Center
Fri 09:58:29 PM 31.6800 -83.6347 163° South 504 580 30,900 50 Climbing Jacksonville Center
Fri 09:59:29 PM 31.5425 -83.5800 161° South 512 589 30,900  Level Jacksonville Center
Fri 10:00:29 PM 31.4111 -83.5303 162° South 512 589 30,900  Level Jacksonville Center
Fri 10:01:29 PM 31.2758 -83.4758 161° South 512 589 30,900  Level Jacksonville Center
Fri 10:02:28 PM 31.1422 -83.4242 162° South 507 583 30,900  Level Jacksonville Center
Fri 10:03:29 PM 31.0131 -83.3700 160° South 501 577 30,900  Level Jacksonville Center
Fri 10:04:29 PM 30.8797 -83.3186 162° South 501 577 30,900  Level Jacksonville Center
Fri 10:05:29 PM 30.7503 -83.2625 160° South 501 577 30,900  Level Jacksonville Center
Fri 10:06:29 PM 30.6231 -83.1992 157° South 501 577 30,900  Level Jacksonville Center
Fri 10:07:29 PM 30.4939 -83.1361 157° South 501 577 30,900  Level Jacksonville Center
Fri 10:08:28 PM 30.3644 -83.0708 156° South 501 577 30,900  Level Jacksonville Center
Fri 10:09:29 PM 30.2394 -83.0081 157° South 501 577 30,900  Level Jacksonville Center
Fri 10:10:28 PM 30.1142 -82.9431 156° South 501 577 30,900  Level Jacksonville Center
Fri 10:11:29 PM 29.9742 -82.8781 158° South 496 571 30,900  Level Jacksonville Center
Fri 10:12:29 PM 29.8489 -82.8158 157° South 491 565 30,900  Level Jacksonville Center
Fri 10:13:29 PM 29.7214 -82.7539 157° South 497 572 30,900  Level Jacksonville Center
Fri 10:14:29 PM 29.5983 -82.6919 156° South 497 572 30,900  Level Jacksonville Center
Fri 10:15:29 PM 29.4686 -82.6278 157° South 497 572 30,900  Level Jacksonville Center
Fri 10:16:29 PM 29.3456 -82.5661 156° South 497 572 30,900  Level Jacksonville Center
Fri 10:17:29 PM 29.2178 -82.5072 158° South 497 572 30,900  Level Jacksonville Center
Fri 10:18:29 PM 29.0944 -82.4458 156° South 497 572 30,900  Level Jacksonville Center
Fri 10:19:29 PM 28.9753 -82.3703 151° Southeast 497 572 30,900  Level Jacksonville Center
Fri 10:20:29 PM 28.8603 -82.2928 149° Southeast 487 560 30,900  Level Jacksonville Center
Fri 10:21:29 PM 28.7408 -82.2131 150° Southeast 487 560 30,900  Level Jacksonville Center
Fri 10:22:29 PM 28.6256 -82.1381 150° Southeast 487 560 30,900  Level Jacksonville Center
Fri 10:24:19 PM 28.4150 -82.0017 150° Southeast 479 551 30,900  Level Miami Center
Fri 10:25:17 PM 28.2928 -81.9231 150° Southeast 484 557 30,900  Level Miami Center
Fri 10:26:16 PM 28.1786 -81.8472 150° Southeast 484 557 30,900  Level Miami Center
Fri 10:27:16 PM 28.0600 -81.7714 151° Southeast 484 557 30,900  Level Miami Center
Fri 10:28:16 PM 27.9394 -81.7028 153° Southeast 489 563 30,900  Level Miami Center
Fri 10:29:17 PM 27.8186 -81.6344 153° Southeast 484 557 30,900  Level Miami Center
Fri 10:30:17 PM 27.6997 -81.5661 153° Southeast 484 557 30,900  Level Miami Center
Fri 10:31:17 PM 27.5911 -81.5006 152° Southeast 484 557 30,900  Level Miami Center
Fri 10:32:18 PM 27.4703 -81.4325 153° Southeast 484 557 30,900  Level Miami Center
Fri 10:33:18 PM 27.3350 -81.3547 153° Southeast 484 557 30,900  Level Miami Center
Fri 10:34:16 PM 27.2222 -81.2897 153° Southeast 489 563 30,900  Level Miami Center
Fri 10:35:16 PM 27.1050 -81.2247 154° Southeast 489 563 30,900  Level Miami Center
Fri 10:36:17 PM 26.9819 -81.1547 153° Southeast 483 556 30,900  Level Miami Center
Fri 10:37:16 PM 26.8528 -81.0778 152° Southeast 483 556 30,900  Level Miami Center
Fri 10:38:17 PM 26.7294 -81.0106 154° Southeast 483 556 30,900  Level Miami Center
Fri 10:39:16 PM 26.6347 -80.9561 153° Southeast 482 555 30,900  Level Miami Center
Fri 10:40:18 PM 26.4989 -80.8842 155° Southeast 482 555 30,900  Level Miami Center
Fri 10:41:17 PM 26.3653 -80.8100 154° Southeast 488 562 30,900  Level Miami Center
Fri 10:42:18 PM 26.2564 -80.7483 153° Southeast 488 562 30,900  Level Miami Center
Fri 10:43:17 PM 26.1308 -80.6750 152° Southeast 476 548 30,900  Level Miami Center
Fri 10:44:17 PM 26.0114 -80.6064 153° Southeast 476 548 30,900  Level Miami Center
Fri 10:45:17 PM 25.8900 -80.5403 154° Southeast 476 548 30,900  Level Miami Center
Fri 10:46:18 PM 25.7767 -80.4744 152° Southeast 476 548 30,900  Level Miami Center
Fri 10:47:18 PM 25.6508 -80.4108 155° Southeast 488 562 30,900  Level Miami Center
Fri 10:48:17 PM 25.5542 -80.3481 150° Southeast 498 573 30,900  Level Miami Center
Fri 10:49:17 PM 25.4306 -80.2686 150° Southeast 485 558 30,900  Level Miami Center
Fri 10:50:16 PM 25.3175 -80.1919 148° Southeast 479 551 30,900  Level Miami Center
Fri 10:51:18 PM 25.2022 -80.1153 149° Southeast 479 551 30,900  Level Miami Center
Fri 10:52:17 PM 25.0911 -80.0367 147° Southeast 479 551 30,900  Level Miami Center
Fri 10:53:17 PM 24.9844 -79.9469 143° Southeast 485 558 30,900  Level Miami Center
Fri 10:54:16 PM 24.8797 -79.8550 141° Southeast 485 558 30,900  Level Miami Center
Fri 10:55:16 PM 24.7772 -79.7586 140° Southeast 485 558 30,900  Level Miami Center
Fri 10:56:16 PM 24.6744 -79.6647 140° Southeast 485 558 30,900  Level Miami Center
Fri 10:57:16 PM 24.5719 -79.5689 140° Southeast 485 558 30,900  Level Miami Center
Fri 10:58:17 PM 24.4711 -79.4731 139° Southeast 485 558 30,900  Level Miami Center
Fri 10:59:16 PM 24.3619 -79.3908 146° Southeast 490 564 30,900  Level Miami Center
Fri 11:00:16 PM 24.2503 -79.3089 146° Southeast 480 552 30,900 541 Level Miami Center
Fri 11:01:18 PM 24.1367 -79.2383 150° Southeast 480 552 32,000 1,050 Climbing Miami Center
Fri 11:02:16 PM 24.0250 -79.1636 149° Southeast 475 547 33,000 1,034 Climbing Miami Center
Fri 11:04:00 PM 23.8142 -79.0837 161° South  Level Estimated
Fri 11:11:00 PM 22.9624 -78.7637 161° South  Level Estimated
Fri 11:12:00 PM 22.8407 -78.7183 161° South  Level Estimated
Fri 11:13:00 PM 22.7189 -78.6730 161° South  Level Estimated
Fri 11:14:00 PM 22.5972 -78.6278 161° South  Level Estimated
Fri 11:15:00 PM 22.4754 -78.5826 161° South  Level Estimated
Fri 11:16:00 PM 22.3536 -78.5375 161° South  Level Estimated
Fri 11:17:00 PM 22.2318 -78.4926 161° South  Level Estimated
Fri 11:18:00 PM 22.1100 -78.4476 161° South  Level Estimated
Fri 11:19:00 PM 21.9882 -78.4028 161° South  Level Estimated
Fri 11:20:00 PM 21.8663 -78.3581 161° South  Level Estimated
Fri 11:21:00 PM 21.7445 -78.3134 161° South  Level Estimated
Fri 11:22:00 PM 21.6226 -78.2688 161° South  Level Estimated
Fri 11:23:00 PM 21.5007 -78.2243 161° South  Level Estimated
Fri 11:24:00 PM 21.3789 -78.1798 161° South  Level Estimated
Fri 11:25:00 PM 21.2570 -78.1354 161° South  Level Estimated
Fri 11:26:00 PM 21.1351 -78.0911 161° South  Level Estimated
Fri 11:27:00 PM 21.0131 -78.0469 161° South  Level Estimated
Fri 11:28:00 PM 20.8912 -78.0027 161° South  Level Estimated
Fri 11:29:00 PM 20.7693 -77.9586 161° South  Level Estimated
Fri 11:30:00 PM 20.6473 -77.9146 161° South  Level Estimated
Fri 11:31:00 PM 20.5254 -77.8707 161° South  Level Estimated
Fri 11:32:00 PM 20.4034 -77.8268 161° South  Level Estimated
Fri 11:33:00 PM 20.2814 -77.7830 161° South  Level Estimated
Fri 11:34:00 PM 20.1594 -77.7392 161° South  Level Estimated
Fri 11:35:00 PM 20.0374 -77.6956 161° South  Level Estimated
Fri 11:36:00 PM 19.9154 -77.6520 161° South  Level Estimated
Fri 11:37:00 PM 19.7934 -77.6084 161° South  Level Estimated
Fri 11:38:00 PM 19.6713 -77.5649 161° South  Level Estimated
Fri 11:39:00 PM 19.5493 -77.5216 161° South  Level Estimated
Fri 11:40:00 PM 19.4272 -77.4782 161° South  Level Estimated
Fri 11:41:00 PM 19.3051 -77.4349 162° South  Level Estimated
Fri 11:42:00 PM 19.1831 -77.3917 162° South  Level Estimated
Fri 11:43:00 PM 19.0610 -77.3486 162° South  Level Estimated
Fri 11:44:00 PM 18.9389 -77.3055 162° South  Level Estimated
Fri 11:45:00 PM 18.8168 -77.2625 162° South  Level Estimated
Fri 11:46:00 PM 18.6946 -77.2195 162° South  Level Estimated
Fri 11:47:00 PM 18.5725 -77.1767 162° South  Level Estimated
Fri 11:48:00 PM 18.4504 -77.1338 162° South  Level Estimated
Fri 11:49:00 PM 18.3282 -77.0910 162° South  Level Estimated
Fri 11:50:00 PM 18.2061 -77.0483 162° South  Level Estimated
Fri 11:51:00 PM 18.0839 -77.0057 162° South  Level Estimated
Fri 11:52:00 PM 17.9617 -76.9631 162° South  Level Estimated
Fri 11:53:00 PM 17.8395 -76.9206 162° South  Level Estimated
Fri 11:54:00 PM 17.7173 -76.8781 162° South  Level Estimated
Fri 11:55:00 PM 17.5951 -76.8357 162° South  Level Estimated
Fri 11:56:00 PM 17.4729 -76.7933 162° South  Level Estimated
Fri 11:57:00 PM 17.3507 -76.7510 162° South  Level Estimated
Fri 11:58:00 PM 17.2285 -76.7088 162° South  Level Estimated
Fri 11:59:00 PM 17.1062 -76.6666 162° South  Level Estimated
Sat 12:00:00 AM 16.9840 -76.6245 162° South  Level Estimated
Sat 12:01:00 AM 16.8617 -76.5824 162° South  Level Estimated
Sat 12:02:00 AM 16.7394 -76.5404 162° South  Level Estimated
Sat 12:03:00 AM 16.6172 -76.4984 162° South  Level Estimated
Sat 12:04:00 AM 16.4949 -76.4565 162° South  Level Estimated
Sat 12:05:00 AM 16.3726 -76.4146 162° South  Level Estimated
Sat 12:06:00 AM 16.2503 -76.3728 162° South  Level Estimated
Sat 12:07:00 AM 16.1280 -76.3310 162° South  Level Estimated
Sat 12:08:00 AM 16.0057 -76.2893 162° South  Level Estimated
Sat 12:09:00 AM 15.8834 -76.2477 162° South  Level Estimated
Sat 12:10:00 AM 15.7610 -76.2060 162° South  Level Estimated
Sat 12:11:00 AM 15.6387 -76.1645 162° South  Level Estimated
Sat 12:12:00 AM 15.5163 -76.1230 162° South  Level Estimated
Sat 12:13:00 AM 15.3940 -76.0815 162° South  Level Estimated
Sat 12:14:00 AM 15.2716 -76.0401 162° South  Level Estimated
Sat 12:15:00 AM 15.1492 -75.9987 162° South  Level Estimated
Sat 12:16:00 AM 15.0269 -75.9574 162° South  Level Estimated
Sat 12:17:00 AM 14.9045 -75.9162 162° South  Level Estimated
Sat 12:18:00 AM 14.7821 -75.8749 162° South  Level Estimated
Sat 12:19:00 AM 14.6597 -75.8338 162° South  Level Estimated
Sat 12:20:00 AM 14.5373 -75.7926 162° South  Level Estimated
Sat 12:21:00 AM 14.4149 -75.7516 162° South  Level Estimated
Sat 12:22:00 AM 14.2924 -75.7105 162° South  Level Estimated
Sat 12:23:00 AM 14.1700 -75.6695 162° South  Level Estimated
Sat 12:24:00 AM 14.0476 -75.6286 162° South  Level Estimated
Sat 12:25:00 AM 13.9251 -75.5877 162° South  Level Estimated
Sat 12:26:00 AM 13.8027 -75.5468 162° South  Level Estimated
Sat 12:27:00 AM 13.6802 -75.5060 162° South  Level Estimated
Sat 12:28:00 AM 13.5578 -75.4652 162° South  Level Estimated
Sat 12:29:00 AM 13.4353 -75.4245 162° South  Level Estimated
Sat 12:30:00 AM 13.3128 -75.3838 162° South  Level Estimated
Sat 12:31:00 AM 13.1903 -75.3432 162° South  Level Estimated
Sat 12:32:00 AM 13.0678 -75.3026 162° South  Level Estimated
Sat 12:33:00 AM 12.9453 -75.2620 162° South  Level Estimated
Sat 12:34:00 AM 12.8229 -75.2215 162° South  Level Estimated
Sat 12:35:00 AM 12.7003 -75.1810 162° South  Level Estimated
Sat 12:36:00 AM 12.5768 -75.1402 162° South  Level Estimated
Sat 12:37:00 AM 12.4532 -75.0994 162° South  Level Estimated
Sat 12:38:00 AM 12.3296 -75.0587 162° South  Level Estimated
Sat 12:39:00 AM 12.2061 -75.0180 162° South  Level Estimated
Sat 12:40:00 AM 12.0825 -74.9774 162° South  Level Estimated
Sat 12:41:00 AM 11.9589 -74.9368 162° South  Level Estimated
Sat 12:42:00 AM 11.8353 -74.8962 162° South  Level Estimated
Sat 12:43:00 AM 11.7117 -74.8557 162° South  Level Estimated
Sat 12:44:00 AM 11.5881 -74.8152 162° South  Level Estimated
Sat 12:45:00 AM 11.4645 -74.7747 162° South  Level Estimated
Sat 12:46:00 AM 11.3408 -74.7343 162° South  Level Estimated
Sat 12:47:00 AM 11.2172 -74.6939 162° South  Level Estimated
Sat 12:48:00 AM 11.0936 -74.6536 162° South  Level Estimated
Sat 12:49:00 AM 10.9700 -74.6132 162° South  Level Estimated
Sat 12:50:00 AM 10.8463 -74.5730 162° South  Level Estimated
Sat 12:51:00 AM 10.7227 -74.5327 162° South  Level Estimated
Sat 12:52:00 AM 10.5990 -74.4925 162° South  Level Estimated
Sat 12:53:00 AM 10.4754 -74.4523 162° South  Level Estimated
Sat 12:54:00 AM 10.3517 -74.4121 162° South  Level Estimated
Sat 12:55:00 AM 10.2280 -74.3720 162° South  Level Estimated
Sat 12:56:00 AM 10.1044 -74.3319 162° South  Level Estimated
Sat 12:57:00 AM 9.9807 -74.2919 162° South  Level Estimated
Sat 12:58:00 AM 9.8570 -74.2518 162° South  Level Estimated
Sat 12:59:00 AM 9.7333 -74.2118 162° South  Level Estimated
Sat 01:00:00 AM 9.6096 -74.1719 162° South  Level Estimated
Sat 01:01:00 AM 9.4860 -74.1319 162° South  Level Estimated
Sat 01:02:00 AM 9.3623 -74.0920 162° South  Level Estimated
Sat 01:03:00 AM 9.2386 -74.0521 162° South  Level Estimated
Sat 01:04:00 AM 9.1148 -74.0123 162° South  Level Estimated
Sat 01:05:00 AM 8.9911 -73.9725 162° South  Level Estimated
Sat 01:06:00 AM 8.8674 -73.9326 162° South  Level Estimated
Sat 01:07:00 AM 8.7437 -73.8929 162° South  Level Estimated
Sat 01:08:00 AM 8.6200 -73.8531 162° South  Level Estimated
Sat 01:09:00 AM 8.4962 -73.8134 162° South  Level Estimated
Sat 01:10:00 AM 8.3725 -73.7737 162° South  Level Estimated
Sat 01:11:00 AM 8.2488 -73.7340 162° South  Level Estimated
Sat 01:12:00 AM 8.1250 -73.6944 162° South  Level Estimated
Sat 01:13:00 AM 8.0013 -73.6548 162° South  Level Estimated
Sat 01:14:00 AM 7.8775 -73.6152 162° South  Level Estimated
Sat 01:15:00 AM 7.7538 -73.5756 162° South  Level Estimated
Sat 01:16:00 AM 7.6300 -73.5360 162° South  Level Estimated
Sat 01:17:00 AM 7.5063 -73.4965 162° South  Level Estimated
Sat 01:18:00 AM 7.3825 -73.4570 162° South  Level Estimated
Sat 01:19:00 AM 7.2587 -73.4175 162° South  Level Estimated
Sat 01:20:00 AM 7.1350 -73.3781 162° South  Level Estimated
Sat 01:21:00 AM 7.0112 -73.3386 162° South  Level Estimated
Sat 01:22:00 AM 6.8874 -73.2992 162° South  Level Estimated
Sat 01:23:00 AM 6.7636 -73.2598 162° South  Level Estimated
Sat 01:24:00 AM 6.6399 -73.2204 162° South  Level Estimated
Sat 01:25:00 AM 6.5161 -73.1811 162° South  Level Estimated
Sat 01:26:00 AM 6.3923 -73.1417 162° South  Level Estimated
Sat 01:27:00 AM 6.2685 -73.1024 162° South  Level Estimated
Sat 01:28:00 AM 6.1447 -73.0631 162° South  Level Estimated
Sat 01:29:00 AM 6.0209 -73.0238 162° South  Level Estimated
Sat 01:30:00 AM 5.8984 -72.9850 162° South  Level Estimated
Sat 01:31:00 AM 5.7759 -72.9461 162° South  Level Estimated
Sat 01:32:00 AM 5.6534 -72.9073 162° South  Level Estimated
Sat 01:33:00 AM 5.5309 -72.8685 163° South  Level Estimated
Sat 01:34:00 AM 5.4083 -72.8297 163° South  Level Estimated
Sat 01:35:00 AM 5.2858 -72.7909 163° South  Level Estimated
Sat 01:36:00 AM 5.1633 -72.7522 163° South  Level Estimated
Sat 01:37:00 AM 5.0408 -72.7134 163° South  Level Estimated
Sat 01:38:00 AM 4.9183 -72.6747 163° South  Level Estimated
Sat 01:39:00 AM 4.7957 -72.6360 163° South  Level Estimated
Sat 01:40:00 AM 4.6732 -72.5973 163° South  Level Estimated
Sat 01:41:00 AM 4.5507 -72.5586 163° South  Level Estimated
Sat 01:42:00 AM 4.4281 -72.5200 163° South  Level Estimated
Sat 01:43:00 AM 4.3056 -72.4813 163° South  Level Estimated
Sat 01:44:00 AM 4.1831 -72.4426 163° South  Level Estimated
Sat 01:45:00 AM 4.0605 -72.4040 163° South  Level Estimated
Sat 01:46:00 AM 3.9380 -72.3654 163° South  Level Estimated
Sat 01:47:00 AM 3.8154 -72.3268 163° South  Level Estimated
Sat 01:48:00 AM 3.6929 -72.2882 163° South  Level Estimated
Sat 01:49:00 AM 3.5703 -72.2496 163° South  Level Estimated
Sat 01:50:00 AM 3.4478 -72.2110 163° South  Level Estimated
Sat 01:51:00 AM 3.3252 -72.1724 163° South  Level Estimated
Sat 01:52:00 AM 3.2027 -72.1339 163° South  Level Estimated
Sat 01:53:00 AM 3.0801 -72.0953 163° South  Level Estimated
Sat 01:54:00 AM 2.9576 -72.0568 163° South  Level Estimated
Sat 01:55:00 AM 2.8350 -72.0182 163° South  Level Estimated
Sat 01:56:00 AM 2.7125 -71.9797 163° South  Level Estimated
Sat 01:57:00 AM 2.5899 -71.9412 163° South  Level Estimated
Sat 01:58:00 AM 2.4673 -71.9027 163° South  Level Estimated
Sat 01:59:00 AM 2.3448 -71.8642 163° South  Level Estimated
Sat 02:00:00 AM 2.2222 -71.8257 163° South  Level Estimated
Sat 02:01:00 AM 2.0997 -71.7872 163° South  Level Estimated
Sat 02:02:00 AM 1.9771 -71.7487 163° South  Level Estimated
Sat 02:03:00 AM 1.8545 -71.7102 163° South  Level Estimated
Sat 02:04:00 AM 1.7320 -71.6718 163° South  Level Estimated
Sat 02:05:00 AM 1.6094 -71.6333 163° South  Level Estimated
Sat 02:06:00 AM 1.4868 -71.5948 163° South  Level Estimated
Sat 02:07:00 AM 1.3643 -71.5564 163° South  Level Estimated
Sat 02:08:00 AM 1.2417 -71.5179 163° South  Level Estimated
Sat 02:09:00 AM 1.1191 -71.4795 163° South  Level Estimated
Sat 02:10:00 AM 0.9966 -71.4410 163° South  Level Estimated
Sat 02:11:00 AM 0.8740 -71.4026 163° South  Level Estimated
Sat 02:12:00 AM 0.7514 -71.3641 163° South  Level Estimated
Sat 02:13:00 AM 0.6288 -71.3257 163° South  Level Estimated
Sat 02:14:00 AM 0.5063 -71.2872 163° South  Level Estimated
Sat 02:15:00 AM 0.3837 -71.2488 163° South  Level Estimated
Sat 02:16:00 AM 0.2611 -71.2104 163° South  Level Estimated
Sat 02:17:00 AM 0.1386 -71.1719 163° South  Level Estimated
Sat 02:18:00 AM 0.0160 -71.1335 163° South  Level Estimated
Sat 02:19:00 AM -0.1066 -71.0950 163° South  Level Estimated
Sat 02:20:00 AM -0.2291 -71.0566 163° South  Level Estimated
Sat 02:21:00 AM -0.3517 -71.0182 163° South  Level Estimated
Sat 02:22:00 AM -0.4743 -70.9797 163° South  Level Estimated
Sat 02:23:00 AM -0.5969 -70.9413 163° South  Level Estimated
Sat 02:24:00 AM -0.7194 -70.9028 163° South  Level Estimated
Sat 02:25:00 AM -0.8420 -70.8644 163° South  Level Estimated
Sat 02:26:00 AM -0.9646 -70.8260 163° South  Level Estimated
Sat 02:27:00 AM -1.0871 -70.7875 163° South  Level Estimated
Sat 02:28:00 AM -1.2097 -70.7490 163° South  Level Estimated
Sat 02:29:00 AM -1.3323 -70.7106 163° South  Level Estimated
Sat 02:30:00 AM -1.4548 -70.6721 163° South  Level Estimated
Sat 02:31:00 AM -1.5774 -70.6337 163° South  Level Estimated
Sat 02:32:00 AM -1.6996 -70.5953 163° South  Level Estimated
Sat 02:33:00 AM -1.8217 -70.5570 163° South  Level Estimated
Sat 02:34:00 AM -1.9438 -70.5187 163° South  Level Estimated
Sat 02:35:00 AM -2.0660 -70.4803 163° South  Level Estimated
Sat 02:36:00 AM -2.1881 -70.4419 163° South  Level Estimated
Sat 02:37:00 AM -2.3103 -70.4036 163° South  Level Estimated
Sat 02:38:00 AM -2.4324 -70.3652 163° South  Level Estimated
Sat 02:39:00 AM -2.5545 -70.3268 163° South  Level Estimated
Sat 02:40:00 AM -2.6767 -70.2885 163° South  Level Estimated
Sat 02:41:00 AM -2.7988 -70.2501 163° South  Level Estimated
Sat 02:42:00 AM -2.9209 -70.2117 163° South  Level Estimated
Sat 02:43:00 AM -3.0431 -70.1733 163° South  Level Estimated
Sat 02:44:00 AM -3.1652 -70.1348 163° South  Level Estimated
Sat 02:45:00 AM -3.2873 -70.0964 163° South  Level Estimated
Sat 02:46:00 AM -3.4094 -70.0580 163° South  Level Estimated
Sat 02:47:00 AM -3.5316 -70.0195 163° South  Level Estimated
Sat 02:48:00 AM -3.6537 -69.9811 163° South  Level Estimated
Sat 02:49:00 AM -3.7758 -69.9426 163° South  Level Estimated
Sat 02:50:00 AM -3.8979 -69.9042 163° South  Level Estimated
Sat 02:51:00 AM -4.0200 -69.8657 163° South  Level Estimated
Sat 02:52:00 AM -4.1422 -69.8272 163° South  Level Estimated
Sat 02:53:00 AM -4.2643 -69.7887 163° South  Level Estimated
Sat 02:54:00 AM -4.3864 -69.7501 163° South  Level Estimated
Sat 02:55:00 AM -4.5085 -69.7116 163° South  Level Estimated
Sat 02:56:00 AM -4.6306 -69.6731 163° South  Level Estimated
Sat 02:57:00 AM -4.7527 -69.6345 163° South  Level Estimated
Sat 02:58:00 AM -4.8748 -69.5959 163° South  Level Estimated
Sat 02:59:00 AM -4.9969 -69.5573 163° South  Level Estimated
Sat 03:00:00 AM -5.1190 -69.5187 163° South  Level Estimated
Sat 03:01:00 AM -5.2411 -69.4801 163° South  Level Estimated
Sat 03:02:00 AM -5.3632 -69.4415 163° South  Level Estimated
Sat 03:03:00 AM -5.4853 -69.4028 163° South  Level Estimated
Sat 03:04:00 AM -5.6074 -69.3642 163° South  Level Estimated
Sat 03:05:00 AM -5.7295 -69.3255 163° South  Level Estimated
Sat 03:06:00 AM -5.8516 -69.2868 162° South  Level Estimated
Sat 03:07:00 AM -5.9736 -69.2481 162° South  Level Estimated
Sat 03:08:00 AM -6.0957 -69.2094 162° South  Level Estimated
Sat 03:09:00 AM -6.2178 -69.1706 162° South  Level Estimated
Sat 03:10:00 AM -6.3399 -69.1318 162° South  Level Estimated
Sat 03:11:00 AM -6.4619 -69.0930 162° South  Level Estimated
Sat 03:12:00 AM -6.5840 -69.0543 162° South  Level Estimated
Sat 03:13:00 AM -6.7061 -69.0154 162° South  Level Estimated
Sat 03:14:00 AM -6.8288 -68.9764 162° South  Level Estimated
Sat 03:15:00 AM -6.9515 -68.9373 162° South  Level Estimated
Sat 03:16:00 AM -7.0742 -68.8982 162° South  Level Estimated
Sat 03:17:00 AM -7.1968 -68.8591 162° South  Level Estimated
Sat 03:18:00 AM -7.3195 -68.8200 162° South  Level Estimated
Sat 03:19:00 AM -7.4422 -68.7808 162° South  Level Estimated
Sat 03:20:00 AM -7.5649 -68.7417 162° South  Level Estimated
Sat 03:21:00 AM -7.6876 -68.7025 162° South  Level Estimated
Sat 03:22:00 AM -7.8102 -68.6633 162° South  Level Estimated
Sat 03:23:00 AM -7.9329 -68.6240 162° South  Level Estimated
Sat 03:24:00 AM -8.0556 -68.5847 162° South  Level Estimated
Sat 03:25:00 AM -8.1782 -68.5455 162° South  Level Estimated
Sat 03:26:00 AM -8.3009 -68.5061 162° South  Level Estimated
Sat 03:27:00 AM -8.4235 -68.4668 162° South  Level Estimated
Sat 03:28:00 AM -8.5462 -68.4275 162° South  Level Estimated
Sat 03:29:00 AM -8.6688 -68.3881 162° South  Level Estimated
Sat 03:30:00 AM -8.7915 -68.3486 162° South  Level Estimated
Sat 03:31:00 AM -8.9141 -68.3092 162° South  Level Estimated
Sat 03:32:00 AM -9.0368 -68.2698 162° South  Level Estimated
Sat 03:33:00 AM -9.1594 -68.2303 162° South  Level Estimated
Sat 03:34:00 AM -9.2820 -68.1907 162° South  Level Estimated
Sat 03:35:00 AM -9.4046 -68.1512 162° South  Level Estimated
Sat 03:36:00 AM -9.5273 -68.1116 162° South  Level Estimated
Sat 03:37:00 AM -9.6499 -68.0720 162° South  Level Estimated
Sat 03:38:00 AM -9.7725 -68.0324 162° South  Level Estimated
Sat 03:39:00 AM -9.8951 -67.9927 162° South  Level Estimated
Sat 03:40:00 AM -10.0177 -67.9530 162° South  Level Estimated
Sat 03:41:00 AM -10.1403 -67.9133 162° South  Level Estimated
Sat 03:42:00 AM -10.2629 -67.8736 162° South  Level Estimated
Sat 03:43:00 AM -10.3854 -67.8338 162° South  Level Estimated
Sat 03:44:00 AM -10.5080 -67.7940 162° South  Level Estimated
Sat 03:45:00 AM -10.6306 -67.7541 162° South  Level Estimated
Sat 03:46:00 AM -10.7532 -67.7143 162° South  Level Estimated
Sat 03:47:00 AM -10.8757 -67.6743 162° South  Level Estimated
Sat 03:48:00 AM -10.9983 -67.6344 162° South  Level Estimated
Sat 03:49:00 AM -11.1208 -67.5944 162° South  Level Estimated
Sat 03:50:00 AM -11.2434 -67.5544 162° South  Level Estimated
Sat 03:51:00 AM -11.3659 -67.5144 162° South  Level Estimated
Sat 03:52:00 AM -11.4885 -67.4743 162° South  Level Estimated
Sat 03:53:00 AM -11.6110 -67.4342 162° South  Level Estimated
Sat 03:54:00 AM -11.7335 -67.3941 162° South  Level Estimated
Sat 03:55:00 AM -11.8560 -67.3539 162° South  Level Estimated
Sat 03:56:00 AM -11.9786 -67.3137 162° South  Level Estimated
Sat 03:57:00 AM -12.1011 -67.2734 162° South  Level Estimated
Sat 03:58:00 AM -12.2236 -67.2331 162° South  Level Estimated
Sat 03:59:00 AM -12.3461 -67.1928 162° South  Level Estimated
Sat 04:00:00 AM -12.4686 -67.1524 162° South  Level Estimated
Sat 04:01:00 AM -12.5911 -67.1120 162° South  Level Estimated
Sat 04:02:00 AM -12.7135 -67.0715 162° South  Level Estimated
Sat 04:03:00 AM -12.8360 -67.0311 162° South  Level Estimated
Sat 04:04:00 AM -12.9585 -66.9905 162° South  Level Estimated
Sat 04:05:00 AM -13.0809 -66.9500 162° South  Level Estimated
Sat 04:06:00 AM -13.2034 -66.9094 162° South  Level Estimated
Sat 04:07:00 AM -13.3258 -66.8688 162° South  Level Estimated
Sat 04:08:00 AM -13.4483 -66.8281 162° South  Level Estimated
Sat 04:09:00 AM -13.5707 -66.7873 162° South  Level Estimated
Sat 04:10:00 AM -13.6932 -66.7466 162° South  Level Estimated
Sat 04:11:00 AM -13.8156 -66.7058 162° South  Level Estimated
Sat 04:12:00 AM -13.9380 -66.6649 162° South  Level Estimated
Sat 04:13:00 AM -14.0604 -66.6240 162° South  Level Estimated
Sat 04:14:00 AM -14.1828 -66.5831 162° South  Level Estimated
Sat 04:15:00 AM -14.3052 -66.5421 162° South  Level Estimated
Sat 04:16:00 AM -14.4276 -66.5011 162° South  Level Estimated
Sat 04:17:00 AM -14.5500 -66.4600 162° South  Level Estimated
Sat 04:18:00 AM -14.6723 -66.4189 162° South  Level Estimated
Sat 04:19:00 AM -14.7947 -66.3777 162° South  Level Estimated
Sat 04:20:00 AM -14.9171 -66.3365 162° South  Level Estimated
Sat 04:21:00 AM -15.0394 -66.2952 162° South  Level Estimated
Sat 04:22:00 AM -15.1618 -66.2539 162° South  Level Estimated
Sat 04:23:00 AM -15.2841 -66.2126 162° South  Level Estimated
Sat 04:24:00 AM -15.4065 -66.1712 162° South  Level Estimated
Sat 04:25:00 AM -15.5288 -66.1297 162° South  Level Estimated
Sat 04:26:00 AM -15.6511 -66.0882 162° South  Level Estimated
Sat 04:27:00 AM -15.7734 -66.0467 162° South  Level Estimated
Sat 04:28:00 AM -15.8951 -66.0053 162° South  Level Estimated
Sat 04:29:00 AM -16.0167 -65.9639 162° South  Level Estimated
Sat 04:30:00 AM -16.1383 -65.9224 162° South  Level Estimated
Sat 04:31:00 AM -16.2600 -65.8808 162° South  Level Estimated
Sat 04:32:00 AM -16.3816 -65.8392 162° South  Level Estimated
Sat 04:33:00 AM -16.5032 -65.7976 162° South  Level Estimated
Sat 04:34:00 AM -16.6248 -65.7559 162° South  Level Estimated
Sat 04:35:00 AM -16.7465 -65.7142 162° South  Level Estimated
Sat 04:36:00 AM -16.8681 -65.6724 162° South  Level Estimated
Sat 04:37:00 AM -16.9897 -65.6305 162° South  Level Estimated
Sat 04:38:00 AM -17.1112 -65.5886 162° South  Level Estimated
Sat 04:39:00 AM -17.2328 -65.5467 162° South  Level Estimated
Sat 04:40:00 AM -17.3544 -65.5046 162° South  Level Estimated
Sat 04:41:00 AM -17.4759 -65.4626 162° South  Level Estimated
Sat 04:42:00 AM -17.5975 -65.4204 162° South  Level Estimated
Sat 04:43:00 AM -17.7190 -65.3783 162° South  Level Estimated
Sat 04:44:00 AM -17.8405 -65.3360 162° South  Level Estimated
Sat 04:45:00 AM -17.9620 -65.2937 162° South  Level Estimated
Sat 04:46:00 AM -18.0835 -65.2514 162° South  Level Estimated
Sat 04:47:00 AM -18.2050 -65.2089 162° South  Level Estimated
Sat 04:48:00 AM -18.3265 -65.1665 162° South  Level Estimated
Sat 04:49:00 AM -18.4480 -65.1239 162° South  Level Estimated
Sat 04:50:00 AM -18.5695 -65.0813 162° South  Level Estimated
Sat 04:51:00 AM -18.6910 -65.0387 162° South  Level Estimated
Sat 04:52:00 AM -18.8124 -64.9959 162° South  Level Estimated
Sat 04:53:00 AM -18.9338 -64.9532 162° South  Level Estimated
Sat 04:54:00 AM -19.0553 -64.9103 162° South  Level Estimated
Sat 04:55:00 AM -19.1767 -64.8674 162° South  Level Estimated
Sat 04:56:00 AM -19.2981 -64.8244 162° South  Level Estimated
Sat 04:57:00 AM -19.4195 -64.7814 162° South  Level Estimated
Sat 04:58:00 AM -19.5409 -64.7383 162° South  Level Estimated
Sat 04:59:00 AM -19.6623 -64.6952 161° South  Level Estimated
Sat 05:00:00 AM -19.7836 -64.6519 161° South  Level Estimated
Sat 05:01:00 AM -19.9050 -64.6086 161° South  Level Estimated
Sat 05:02:00 AM -20.0264 -64.5653 161° South  Level Estimated
Sat 05:03:00 AM -20.1477 -64.5219 161° South  Level Estimated
Sat 05:04:00 AM -20.2690 -64.4784 161° South  Level Estimated
Sat 05:05:00 AM -20.3903 -64.4348 161° South  Level Estimated
Sat 05:06:00 AM -20.5117 -64.3912 161° South  Level Estimated
Sat 05:07:00 AM -20.6329 -64.3475 161° South  Level Estimated
Sat 05:08:00 AM -20.7542 -64.3037 161° South  Level Estimated
Sat 05:09:00 AM -20.8755 -64.2599 161° South  Level Estimated
Sat 05:10:00 AM -20.9968 -64.2160 161° South  Level Estimated
Sat 05:11:00 AM -21.1180 -64.1720 161° South  Level Estimated
Sat 05:12:00 AM -21.2393 -64.1279 161° South  Level Estimated
Sat 05:13:00 AM -21.3605 -64.0838 161° South  Level Estimated
Sat 05:14:00 AM -21.4817 -64.0396 161° South  Level Estimated
Sat 05:15:00 AM -21.6029 -63.9953 161° South  Level Estimated
Sat 05:16:00 AM -21.7241 -63.9510 161° South  Level Estimated
Sat 05:17:00 AM -21.8453 -63.9066 161° South  Level Estimated
Sat 05:18:00 AM -21.9665 -63.8620 161° South  Level Estimated
Sat 05:19:00 AM -22.0876 -63.8175 161° South  Level Estimated
Sat 05:20:00 AM -22.2088 -63.7728 161° South  Level Estimated
Sat 05:21:00 AM -22.3299 -63.7281 161° South  Level Estimated
Sat 05:22:00 AM -22.4510 -63.6833 161° South  Level Estimated
Sat 05:23:00 AM -22.5721 -63.6384 161° South  Level Estimated
Sat 05:24:00 AM -22.6932 -63.5935 161° South  Level Estimated
Sat 05:25:00 AM -22.8143 -63.5484 161° South  Level Estimated
Sat 05:26:00 AM -22.9354 -63.5033 161° South  Level Estimated
Sat 05:27:00 AM -23.0564 -63.4581 161° South  Level Estimated
Sat 05:28:00 AM -23.1775 -63.4128 161° South  Level Estimated
Sat 05:29:00 AM -23.2985 -63.3675 161° South  Level Estimated
Sat 05:30:00 AM -23.4195 -63.3220 161° South  Level Estimated
Sat 05:31:00 AM -23.5406 -63.2765 161° South  Level Estimated
Sat 05:32:00 AM -23.6615 -63.2309 161° South  Level Estimated
Sat 05:33:00 AM -23.7825 -63.1852 161° South  Level Estimated
Sat 05:34:00 AM -23.9035 -63.1394 161° South  Level Estimated
Sat 05:35:00 AM -24.0244 -63.0935 161° South  Level Estimated
Sat 05:36:00 AM -24.1454 -63.0476 161° South  Level Estimated
Sat 05:37:00 AM -24.2663 -63.0015 161° South  Level Estimated
Sat 05:38:00 AM -24.3872 -62.9554 161° South  Level Estimated
Sat 05:39:00 AM -24.5081 -62.9092 161° South  Level Estimated
Sat 05:40:00 AM -24.6290 -62.8629 161° South  Level Estimated
Sat 05:41:00 AM -24.7499 -62.8164 161° South  Level Estimated
Sat 05:42:00 AM -24.8707 -62.7700 161° South  Level Estimated
Sat 05:43:00 AM -24.9914 -62.7235 161° South  Level Estimated
Sat 05:44:00 AM -25.1120 -62.6769 161° South  Level Estimated
Sat 05:45:00 AM -25.2326 -62.6302 161° South  Level Estimated
Sat 05:46:00 AM -25.3532 -62.5834 161° South  Level Estimated
Sat 05:47:00 AM -25.4737 -62.5365 161° South  Level Estimated
Sat 05:48:00 AM -25.5943 -62.4896 161° South  Level Estimated
Sat 05:49:00 AM -25.7148 -62.4425 161° South  Level Estimated
Sat 05:50:00 AM -25.8354 -62.3954 161° South  Level Estimated
Sat 05:51:00 AM -25.9559 -62.3481 161° South  Level Estimated
Sat 05:52:00 AM -26.0764 -62.3008 161° South  Level Estimated
Sat 05:53:00 AM -26.1969 -62.2533 161° South  Level Estimated
Sat 05:54:00 AM -26.3173 -62.2058 161° South  Level Estimated
Sat 05:55:00 AM -26.4378 -62.1582 160° South  Level Estimated
Sat 05:56:00 AM -26.5582 -62.1104 160° South  Level Estimated
Sat 05:57:00 AM -26.6786 -62.0626 160° South  Level Estimated
Sat 05:58:00 AM -26.7990 -62.0146 160° South  Level Estimated
Sat 05:59:00 AM -26.9194 -61.9666 160° South  Level Estimated
Sat 06:00:00 AM -27.0398 -61.9184 160° South  Level Estimated
Sat 06:01:00 AM -27.1601 -61.8702 160° South  Level Estimated
Sat 06:02:00 AM -27.2805 -61.8218 160° South  Level Estimated
Sat 06:03:00 AM -27.4008 -61.7734 160° South  Level Estimated
Sat 06:04:00 AM -27.5211 -61.7248 160° South  Level Estimated
Sat 06:05:00 AM -27.6414 -61.6762 160° South  Level Estimated
Sat 06:06:00 AM -27.7617 -61.6274 160° South  Level Estimated
Sat 06:07:00 AM -27.8819 -61.5785 160° South  Level Estimated
Sat 06:08:00 AM -28.0021 -61.5295 160° South  Level Estimated
Sat 06:09:00 AM -28.1224 -61.4804 160° South  Level Estimated
Sat 06:10:00 AM -28.2426 -61.4312 160° South  Level Estimated
Sat 06:11:00 AM -28.3627 -61.3819 160° South  Level Estimated
Sat 06:12:00 AM -28.4829 -61.3324 160° South  Level Estimated
Sat 06:13:00 AM -28.6031 -61.2829 160° South  Level Estimated
Sat 06:14:00 AM -28.7232 -61.2332 160° South  Level Estimated
Sat 06:15:00 AM -28.8433 -61.1834 160° South  Level Estimated
Sat 06:16:00 AM -28.9634 -61.1335 160° South  Level Estimated
Sat 06:17:00 AM -29.0835 -61.0835 160° South  Level Estimated
Sat 06:18:00 AM -29.2035 -61.0334 160° South  Level Estimated
Sat 06:19:00 AM -29.3236 -60.9832 160° South  Level Estimated
Sat 06:20:00 AM -29.4436 -60.9328 160° South  Level Estimated
Sat 06:21:00 AM -29.5636 -60.8823 160° South  Level Estimated
Sat 06:22:00 AM -29.6836 -60.8317 160° South  Level Estimated
Sat 06:23:00 AM -29.8035 -60.7810 160° South  Level Estimated
Sat 06:24:00 AM -29.9235 -60.7302 160° South  Level Estimated
Sat 06:25:00 AM -30.0434 -60.6792 160° South  Level Estimated
Sat 06:26:00 AM -30.1633 -60.6281 160° South  Level Estimated
Sat 06:27:00 AM -30.2832 -60.5769 160° South  Level Estimated
Sat 06:28:00 AM -30.4030 -60.5256 160° South  Level Estimated
Sat 06:29:00 AM -30.5229 -60.4741 160° South  Level Estimated
Sat 06:30:00 AM -30.6427 -60.4225 160° South  Level Estimated
Sat 06:31:00 AM -30.7625 -60.3708 160° South  Level Estimated
Sat 06:32:00 AM -30.8823 -60.3190 160° South  Level Estimated
Sat 06:33:00 AM -31.0018 -60.2671 160° South  Level Estimated
Sat 06:34:00 AM -31.1213 -60.2150 160° South  Level Estimated
Sat 06:35:00 AM -31.2409 -60.1629 160° South  Level Estimated
Sat 06:36:00 AM -31.3603 -60.1106 160° South  Level Estimated
Sat 06:37:00 AM -31.4798 -60.0582 159° South  Level Estimated
Sat 06:38:00 AM -31.5993 -60.0056 159° South  Level Estimated
Sat 06:39:00 AM -31.7187 -59.9530 159° South  Level Estimated
Sat 06:40:00 AM -31.8381 -59.9001 159° South  Level Estimated
Sat 06:41:00 AM -31.9575 -59.8472 159° South  Level Estimated
Sat 06:42:00 AM -32.0768 -59.7941 159° South  Level Estimated
Sat 06:43:00 AM -32.1962 -59.7409 159° South  Level Estimated
Sat 06:44:00 AM -32.3155 -59.6875 159° South  Level Estimated
Sat 06:45:00 AM -32.4348 -59.6340 159° South  Level Estimated
Sat 06:46:00 AM -32.5541 -59.5803 159° South  Level Estimated
Sat 06:47:00 AM -32.6733 -59.5265 159° South  Level Estimated
Sat 06:48:00 AM -32.7925 -59.4726 159° South  Level Estimated
Sat 06:49:00 AM -32.9117 -59.4185 159° South  Level Estimated
Sat 06:50:00 AM -33.0309 -59.3643 159° South  Level Estimated
Sat 06:51:00 AM -33.1501 -59.3099 159° South  Level Estimated
Sat 06:52:00 AM -33.2692 -59.2553 159° South  Level Estimated
Sat 06:53:00 AM -33.3883 -59.2007 159° South  Level Estimated
Sat 06:54:00 AM -33.5074 -59.1458 159° South  Level Estimated
Sat 06:55:00 AM -33.6264 -59.0909 159° South  Level Estimated
Sat 06:56:00 AM -33.7455 -59.0357 159° South  Level Estimated
Sat 06:57:00 AM -33.8645 -58.9804 159° South  Level Estimated
Sat 06:58:00 AM -33.9835 -58.9250 159° South  Level Estimated
Sat 06:59:00 AM -34.1024 -58.8694 159° South  Level Estimated
Sat 07:00:00 AM -34.2214 -58.8137 159° South  Level Estimated
Sat 07:01:00 AM -34.3403 -58.7578 159° South  Level Estimated
Sat 07:02:00 AM -34.4591 -58.7017 159° South  Level Estimated
Sat 07:03:00 AM -34.5780 -58.6455 159° South  Level Estimated
Sat 07:04:00 AM -34.6968 -58.5891 159° South  Level Estimated
Sat 07:05:00 AM -34.8156 -58.5325 159° South  Level Estimated
Sat 07:06:00 AM -34.8235 -58.5288 159° South  Level Estimated
Sat 07:07:00 AM -34.8235 -58.5288 231° Southwest  Level Estimated
Sat 07:08:00 AM -34.8235 -58.5288 231° Southwest  Level Estimated
Sat 07:09:00 AM -34.8235 -58.5288 231° Southwest  Level Estimated
Sat 07:10:00 AM -34.8235 -58.5288 231° Southwest  Level Estimated
Sat 07:11:00 AM -34.8235 -58.5288 231° Southwest  Level Estimated
Sat 07:12:00 AM -34.8235 -58.5288 231° Southwest  Level Estimated
Sat 07:13:00 AM -34.8235 -58.5288 231° Southwest  Level Estimated
Sat 07:14:00 AM -34.8235 -58.5288 231° Southwest  Level Estimated
Sat 07:15:00 AM -34.8235 -58.5288 231° Southwest  Level Estimated
Sat 07:16:00 AM -34.8235 -58.5288 231° Southwest  Level Estimated
Sat 07:17:00 AM -34.8235 -58.5288 231° Southwest  Level Estimated
Sat 07:18:00 AM -34.8235 -58.5288 231° Southwest  Level Estimated
Sat 07:19:00 AM -34.8235 -58.5288 231° Southwest  Level Estimated
Sat 07:20:00 AM -34.8235 -58.5288 231° Southwest  Level Estimated

Login

Don't have an account? Register now (free) for customized features, flight alerts, and more!